sensor_id;sensor_type;location;lat;lon;timestamp;pressure;altitude;pressure_sealevel;temperature;humidity
34500;BME280;20745;50.882;6.962;2022-09-09T00:02:31;100289.84;;;18.83;96.13
34500;BME280;20745;50.882;6.962;2022-09-09T00:05:28;100284.88;;;18.80;96.40
34500;BME280;20745;50.882;6.962;2022-09-09T00:08:22;100282.28;;;18.74;97.53
34500;BME280;20745;50.882;6.962;2022-09-09T00:11:18;100279.44;;;18.69;97.09
34500;BME280;20745;50.882;6.962;2022-09-09T00:14:29;100278.69;;;18.57;97.03
34500;BME280;20745;50.882;6.962;2022-09-09T00:17:53;100279.28;;;18.47;97.16
34500;BME280;20745;50.882;6.962;2022-09-09T00:21:05;100272.91;;;18.42;97.90
34500;BME280;20745;50.882;6.962;2022-09-09T00:23:54;100263.41;;;18.33;95.63
34500;BME280;20745;50.882;6.962;2022-09-09T00:26:48;100276.63;;;18.36;94.91
34500;BME280;20745;50.882;6.962;2022-09-09T00:29:47;100271.50;;;18.39;95.59
34500;BME280;20745;50.882;6.962;2022-09-09T00:32:41;100282.03;;;18.47;96.95
34500;BME280;20745;50.882;6.962;2022-09-09T00:38:40;100285.97;;;18.51;95.70
34500;BME280;20745;50.882;6.962;2022-09-09T00:44:27;100281.78;;;18.49;94.89
34500;BME280;20745;50.882;6.962;2022-09-09T01:03:18;100289.41;;;18.47;95.55
34500;BME280;20745;50.882;6.962;2022-09-09T01:06:27;100288.75;;;18.40;96.26
34500;BME280;20745;50.882;6.962;2022-09-09T01:10:19;100278.28;;;18.37;95.96
34500;BME280;20745;50.882;6.962;2022-09-09T01:12:43;100283.25;;;18.40;96.05
34500;BME280;20745;50.882;6.962;2022-09-09T01:15:34;100276.13;;;18.39;95.73
34500;BME280;20745;50.882;6.962;2022-09-09T01:18:27;100281.59;;;18.39;95.30
34500;BME280;20745;50.882;6.962;2022-09-09T01:24:27;100270.88;;;18.37;94.31
34500;BME280;20745;50.882;6.962;2022-09-09T01:27:23;100269.94;;;18.32;96.69
34500;BME280;20745;50.882;6.962;2022-09-09T01:30:14;100257.72;;;18.23;96.12
34500;BME280;20745;50.882;6.962;2022-09-09T01:33:03;100262.25;;;18.17;97.00
34500;BME280;20745;50.882;6.962;2022-09-09T01:35:58;100269.97;;;18.20;96.18
34500;BME280;20745;50.882;6.962;2022-09-09T01:38:47;100269.72;;;18.22;94.97
34500;BME280;20745;50.882;6.962;2022-09-09T01:41:35;100271.03;;;18.19;96.24
34500;BME280;20745;50.882;6.962;2022-09-09T01:44:22;100273.66;;;18.26;95.16
34500;BME280;20745;50.882;6.962;2022-09-09T01:47:10;100281.25;;;18.24;94.96
34500;BME280;20745;50.882;6.962;2022-09-09T01:49:58;100282.47;;;18.16;95.86
34500;BME280;20745;50.882;6.962;2022-09-09T01:52:50;100279.97;;;18.15;96.99
34500;BME280;20745;50.882;6.962;2022-09-09T01:55:40;100272.84;;;18.14;97.17
34500;BME280;20745;50.882;6.962;2022-09-09T01:58:34;100234.75;;;17.96;97.35
34500;BME280;20745;50.882;6.962;2022-09-09T02:04:59;100278.53;;;18.24;99.27
34500;BME280;20745;50.882;6.962;2022-09-09T02:07:50;100272.66;;;18.32;97.29
34500;BME280;20745;50.882;6.962;2022-09-09T02:11:06;100277.69;;;18.23;96.53
34500;BME280;20745;50.882;6.962;2022-09-09T02:14:16;100275.19;;;18.22;95.83
34500;BME280;20745;50.882;6.962;2022-09-09T02:17:13;100282.44;;;18.28;96.82
34500;BME280;20745;50.882;6.962;2022-09-09T02:20:09;100276.88;;;18.23;94.96
34500;BME280;20745;50.882;6.962;2022-09-09T02:23:00;100281.25;;;18.24;96.53
34500;BME280;20745;50.882;6.962;2022-09-09T02:25:49;100274.72;;;18.25;95.69
34500;BME280;20745;50.882;6.962;2022-09-09T02:28:40;100277.19;;;18.26;95.10
34500;BME280;20745;50.882;6.962;2022-09-09T02:31:30;100268.28;;;18.31;95.31
34500;BME280;20745;50.882;6.962;2022-09-09T02:34:18;100269.94;;;18.32;97.09
34500;BME280;20745;50.882;6.962;2022-09-09T02:37:09;100272.41;;;18.33;96.33
34500;BME280;20745;50.882;6.962;2022-09-09T02:39:57;100269.25;;;18.36;97.03
34500;BME280;20745;50.882;6.962;2022-09-09T02:42:46;100264.94;;;18.29;98.79
34500;BME280;20745;50.882;6.962;2022-09-09T02:45:51;100230.06;;;18.08;97.19
34500;BME280;20745;50.882;6.962;2022-09-09T02:48:51;100263.66;;;18.31;96.43
34500;BME280;20745;50.882;6.962;2022-09-09T02:52:01;100258.31;;;18.25;96.33
34500;BME280;20745;50.882;6.962;2022-09-09T02:54:50;100259.47;;;18.29;96.21
34500;BME280;20745;50.882;6.962;2022-09-09T02:57:42;100256.84;;;18.34;97.22
34500;BME280;20745;50.882;6.962;2022-09-09T03:00:30;100241.78;;;18.31;97.38
34500;BME280;20745;50.882;6.962;2022-09-09T03:03:19;100249.84;;;18.38;95.77
34500;BME280;20745;50.882;6.962;2022-09-09T03:06:07;100246.03;;;18.39;96.42
34500;BME280;20745;50.882;6.962;2022-09-09T03:08:54;100248.28;;;18.42;98.38
34500;BME280;20745;50.882;6.962;2022-09-09T03:11:41;100242.25;;;18.40;97.88
34500;BME280;20745;50.882;6.962;2022-09-09T03:14:29;100246.63;;;18.41;96.78
34500;BME280;20745;50.882;6.962;2022-09-09T03:17:17;100246.56;;;18.36;97.21
34500;BME280;20745;50.882;6.962;2022-09-09T03:20:05;100243.19;;;18.34;97.11
34500;BME280;20745;50.882;6.962;2022-09-09T03:22:53;100241.53;;;18.33;97.51
34500;BME280;20745;50.882;6.962;2022-09-09T03:25:46;100251.38;;;18.34;97.78
34500;BME280;20745;50.882;6.962;2022-09-09T03:28:34;100252.47;;;18.33;97.56
34500;BME280;20745;50.882;6.962;2022-09-09T03:31:22;100245.91;;;18.34;98.07
34500;BME280;20745;50.882;6.962;2022-09-09T03:34:10;100247.72;;;18.40;96.75
34500;BME280;20745;50.882;6.962;2022-09-09T03:36:57;100250.47;;;18.40;97.14
34500;BME280;20745;50.882;6.962;2022-09-09T03:39:45;100244.50;;;18.43;97.58
34500;BME280;20745;50.882;6.962;2022-09-09T03:42:32;100252.34;;;18.39;97.79
34500;BME280;20745;50.882;6.962;2022-09-09T03:45:19;100258.75;;;18.33;97.42
34500;BME280;20745;50.882;6.962;2022-09-09T03:48:06;100254.13;;;18.34;98.27
34500;BME280;20745;50.882;6.962;2022-09-09T03:50:54;100248.78;;;18.27;97.60
34500;BME280;20745;50.882;6.962;2022-09-09T03:53:44;100264.38;;;18.38;96.47
34500;BME280;20745;50.882;6.962;2022-09-09T03:56:31;100252.72;;;18.31;97.15
34500;BME280;20745;50.882;6.962;2022-09-09T03:59:19;100254.97;;;18.34;96.65
34500;BME280;20745;50.882;6.962;2022-09-09T04:02:07;100245.22;;;18.38;95.87
34500;BME280;20745;50.882;6.962;2022-09-09T04:04:55;100245.91;;;18.34;95.50
34500;BME280;20745;50.882;6.962;2022-09-09T04:07:43;100246.56;;;18.36;95.91
34500;BME280;20745;50.882;6.962;2022-09-09T04:10:30;100249.28;;;18.36;94.48
34500;BME280;20745;50.882;6.962;2022-09-09T04:13:19;100243.53;;;18.37;95.35
34500;BME280;20745;50.882;6.962;2022-09-09T04:16:08;100230.97;;;18.36;94.96
34500;BME280;20745;50.882;6.962;2022-09-09T04:18:56;100242.09;;;18.35;94.84
34500;BME280;20745;50.882;6.962;2022-09-09T04:21:44;100239.16;;;18.36;96.12
34500;BME280;20745;50.882;6.962;2022-09-09T04:24:32;100245.69;;;18.35;96.12
34500;BME280;20745;50.882;6.962;2022-09-09T04:27:19;100237.13;;;18.32;96.19
34500;BME280;20745;50.882;6.962;2022-09-09T04:30:06;100246.56;;;18.36;96.52
34500;BME280;20745;50.882;6.962;2022-09-09T04:32:54;100244.63;;;18.36;96.30
34500;BME280;20745;50.882;6.962;2022-09-09T04:35:47;100260.22;;;18.36;95.84
34500;BME280;20745;50.882;6.962;2022-09-09T04:38:35;100249.00;;;18.37;96.29
34500;BME280;20745;50.882;6.962;2022-09-09T04:41:22;100251.88;;;18.31;96.15
34500;BME280;20745;50.882;6.962;2022-09-09T04:44:10;100249.28;;;18.36;96.44
34500;BME280;20745;50.882;6.962;2022-09-09T04:46:58;100254.47;;;18.37;95.85
34500;BME280;20745;50.882;6.962;2022-09-09T04:49:45;100248.19;;;18.37;96.58
34500;BME280;20745;50.882;6.962;2022-09-09T04:52:36;100256.63;;;18.35;96.29
34500;BME280;20745;50.882;6.962;2022-09-09T04:55:24;100252.59;;;18.38;96.15
34500;BME280;20745;50.882;6.962;2022-09-09T04:58:11;100256.84;;;18.34;96.66
34500;BME280;20745;50.882;6.962;2022-09-09T05:01:06;100227.53;;;18.18;96.89
34500;BME280;20745;50.882;6.962;2022-09-09T05:03:54;100272.91;;;18.42;96.91
34500;BME280;20745;50.882;6.962;2022-09-09T05:06:42;100256.50;;;18.42;96.67
34500;BME280;20745;50.882;6.962;2022-09-09T05:09:29;100248.03;;;18.43;96.44
34500;BME280;20745;50.882;6.962;2022-09-09T05:12:17;100255.53;;;18.48;95.49
34500;BME280;20745;50.882;6.962;2022-09-09T05:15:05;100254.44;;;18.49;94.67
34500;BME280;20745;50.882;6.962;2022-09-09T05:17:59;100249.50;;;18.46;94.68
34500;BME280;20745;50.882;6.962;2022-09-09T05:20:47;100256.59;;;18.47;95.75
34500;BME280;20745;50.882;6.962;2022-09-09T05:23:34;100252.78;;;18.48;95.05
34500;BME280;20745;50.882;6.962;2022-09-09T05:26:22;100247.72;;;18.40;94.38
34500;BME280;20745;50.882;6.962;2022-09-09T05:29:10;100255.75;;;18.46;94.82
34500;BME280;20745;50.882;6.962;2022-09-09T05:31:57;100260.66;;;18.44;95.57
34500;BME280;20745;50.882;6.962;2022-09-09T05:34:44;100260.75;;;18.49;94.54
34500;BME280;20745;50.882;6.962;2022-09-09T05:37:32;100270.59;;;18.50;94.18
34500;BME280;20745;50.882;6.962;2022-09-09T05:40:19;100271.09;;;18.47;94.11
34500;BME280;20745;50.882;6.962;2022-09-09T05:43:07;100274.19;;;18.51;93.45
34500;BME280;20745;50.882;6.962;2022-09-09T05:48:31;100265.13;;;18.50;93.55
34500;BME280;20745;50.882;6.962;2022-09-09T05:51:24;100263.84;;;18.53;93.40
34500;BME280;20745;50.882;6.962;2022-09-09T05:54:12;100271.56;;;18.56;92.74
34500;BME280;20745;50.882;6.962;2022-09-09T05:57:02;100277.13;;;18.61;94.51
34500;BME280;20745;50.882;6.962;2022-09-09T05:59:50;100272.25;;;18.63;93.52
34500;BME280;20745;50.882;6.962;2022-09-09T06:02:37;100279.19;;;18.70;91.84
34500;BME280;20745;50.882;6.962;2022-09-09T06:05:25;100275.66;;;18.70;91.18
34500;BME280;20745;50.882;6.962;2022-09-09T06:08:14;100273.59;;;18.77;91.43
34500;BME280;20745;50.882;6.962;2022-09-09T06:11:04;100274.63;;;18.87;90.62
34500;BME280;20745;50.882;6.962;2022-09-09T06:13:51;100277.84;;;18.84;91.57
34500;BME280;20745;50.882;6.962;2022-09-09T06:16:40;100258.16;;;18.71;91.36
34500;BME280;20745;50.882;6.962;2022-09-09T06:19:31;100285.72;;;18.81;90.80
34500;BME280;20745;50.882;6.962;2022-09-09T06:22:18;100285.72;;;18.81;89.69
34500;BME280;20745;50.882;6.962;2022-09-09T06:25:06;100282.72;;;18.82;90.14
34500;BME280;20745;50.882;6.962;2022-09-09T06:27:53;100280.72;;;18.78;89.96
34500;BME280;20745;50.882;6.962;2022-09-09T06:30:41;100284.44;;;18.72;91.72
34500;BME280;20745;50.882;6.962;2022-09-09T06:33:33;100277.78;;;18.68;91.57
34500;BME280;20745;50.882;6.962;2022-09-09T06:36:27;100274.50;;;18.66;91.20
34500;BME280;20745;50.882;6.962;2022-09-09T06:39:15;100276.03;;;18.62;92.08
34500;BME280;20745;50.882;6.962;2022-09-09T06:42:02;100273.41;;;18.67;91.74
34500;BME280;20745;50.882;6.962;2022-09-09T06:44:49;100275.91;;;18.68;90.88
34500;BME280;20745;50.882;6.962;2022-09-09T06:47:37;100273.41;;;18.67;92.06
34500;BME280;20745;50.882;6.962;2022-09-09T06:50:24;100268.41;;;18.64;91.75
34500;BME280;20745;50.882;6.962;2022-09-09T06:53:11;100267.94;;;18.67;92.30
34500;BME280;20745;50.882;6.962;2022-09-09T06:56:02;100267.78;;;18.73;91.38
34500;BME280;20745;50.882;6.962;2022-09-09T06:58:51;100269.28;;;18.81;92.35
34500;BME280;20745;50.882;6.962;2022-09-09T07:01:40;100260.09;;;18.87;91.75
34500;BME280;20745;50.882;6.962;2022-09-09T07:04:28;100264.34;;;18.94;90.22
34500;BME280;20745;50.882;6.962;2022-09-09T07:07:15;100263.50;;;18.94;89.34
34500;BME280;20745;50.882;6.962;2022-09-09T07:10:07;100264.66;;;18.98;89.29
34500;BME280;20745;50.882;6.962;2022-09-09T07:12:57;100254.56;;;18.98;85.55
34500;BME280;20745;50.882;6.962;2022-09-09T07:15:44;100260.28;;;18.97;85.62
34500;BME280;20745;50.882;6.962;2022-09-09T07:18:32;100260.28;;;18.97;85.76
34500;BME280;20745;50.882;6.962;2022-09-09T07:21:20;100260.69;;;19.05;86.71
34500;BME280;20745;50.882;6.962;2022-09-09T07:24:08;100270.81;;;19.05;84.40
34500;BME280;20745;50.882;6.962;2022-09-09T07:26:57;100271.16;;;19.08;84.48
34500;BME280;20745;50.882;6.962;2022-09-09T07:29:44;100222.09;;;18.74;82.88
34500;BME280;20745;50.882;6.962;2022-09-09T07:32:32;100286.84;;;19.13;83.44
34500;BME280;20745;50.882;6.962;2022-09-09T07:35:19;100282.53;;;19.17;82.05
34500;BME280;20745;50.882;6.962;2022-09-09T07:38:07;100283.06;;;19.30;82.28
34500;BME280;20745;50.882;6.962;2022-09-09T07:41:03;100286.06;;;19.46;81.04
34500;BME280;20745;50.882;6.962;2022-09-09T07:43:50;100293.09;;;19.58;80.83
34500;BME280;20745;50.882;6.962;2022-09-09T07:46:38;100296.06;;;19.73;79.59
34500;BME280;20745;50.882;6.962;2022-09-09T07:49:29;100295.38;;;19.83;79.64
34500;BME280;20745;50.882;6.962;2022-09-09T07:52:19;100307.25;;;19.88;79.20
34500;BME280;20745;50.882;6.962;2022-09-09T07:55:08;100307.59;;;19.92;77.86
34500;BME280;20745;50.882;6.962;2022-09-09T07:57:56;100316.22;;;20.00;78.52
34500;BME280;20745;50.882;6.962;2022-09-09T08:00:43;100303.41;;;20.06;77.10
34500;BME280;20745;50.882;6.962;2022-09-09T08:03:30;100305.31;;;20.05;77.70
34500;BME280;20745;50.882;6.962;2022-09-09T08:06:18;100315.13;;;20.01;77.76
34500;BME280;20745;50.882;6.962;2022-09-09T08:09:06;100312.31;;;19.96;76.23
34500;BME280;20745;50.882;6.962;2022-09-09T08:11:54;100315.81;;;19.92;75.81
34500;BME280;20745;50.882;6.962;2022-09-09T08:14:43;100312.88;;;19.98;76.38
34500;BME280;20745;50.882;6.962;2022-09-09T08:17:30;100323.03;;;19.98;76.36
34500;BME280;20745;50.882;6.962;2022-09-09T08:20:17;100314.31;;;20.01;76.53
34500;BME280;20745;50.882;6.962;2022-09-09T08:23:05;100310.47;;;20.02;74.52
34500;BME280;20745;50.882;6.962;2022-09-09T08:25:52;100307.78;;;20.07;74.36
34500;BME280;20745;50.882;6.962;2022-09-09T08:28:40;100310.44;;;20.18;75.43
34500;BME280;20745;50.882;6.962;2022-09-09T08:31:30;100299.81;;;20.22;74.43
34500;BME280;20745;50.882;6.962;2022-09-09T08:34:18;100305.94;;;20.29;72.93
34500;BME280;20745;50.882;6.962;2022-09-09T08:37:08;100305.22;;;20.38;71.40
34500;BME280;20745;50.882;6.962;2022-09-09T08:39:55;100308.47;;;20.57;71.40
34500;BME280;20745;50.882;6.962;2022-09-09T08:42:49;100297.94;;;20.70;71.45
34500;BME280;20745;50.882;6.962;2022-09-09T08:45:50;100306.81;;;20.77;70.06
34500;BME280;20745;50.882;6.962;2022-09-09T08:48:56;100309.38;;;20.62;67.21
34500;BME280;20745;50.882;6.962;2022-09-09T08:51:45;100316.72;;;20.57;68.49
34500;BME280;20745;50.882;6.962;2022-09-09T08:54:34;100311.47;;;20.55;68.84
34500;BME280;20745;50.882;6.962;2022-09-09T08:57:38;100314.91;;;20.67;68.75
34500;BME280;20745;50.882;6.962;2022-09-09T09:00:40;100323.38;;;20.87;69.08
34500;BME280;20745;50.882;6.962;2022-09-09T09:03:51;100312.88;;;21.01;66.90
34500;BME280;20745;50.882;6.962;2022-09-09T09:07:05;100323.25;;;21.25;69.75
34500;BME280;20745;50.882;6.962;2022-09-09T09:10:14;100321.78;;;21.44;67.26
34500;BME280;20745;50.882;6.962;2022-09-09T09:13:43;100319.19;;;21.64;66.38
34500;BME280;20745;50.882;6.962;2022-09-09T09:16:54;100315.06;;;21.67;65.69
34500;BME280;20745;50.882;6.962;2022-09-09T09:19:43;100317.56;;;21.68;65.91
34500;BME280;20745;50.882;6.962;2022-09-09T09:22:50;100322.72;;;21.60;66.79
34500;BME280;20745;50.882;6.962;2022-09-09T09:25:39;100325.63;;;21.43;67.17
34500;BME280;20745;50.882;6.962;2022-09-09T09:28:32;100336.69;;;21.22;67.33
34500;BME280;20745;50.882;6.962;2022-09-09T09:31:19;100325.59;;;21.12;68.29
34500;BME280;20745;50.882;6.962;2022-09-09T09:34:08;100323.31;;;21.04;68.20
34500;BME280;20745;50.882;6.962;2022-09-09T09:36:56;100328.88;;;21.09;68.70
34500;BME280;20745;50.882;6.962;2022-09-09T09:39:44;100334.69;;;21.12;68.40
34500;BME280;20745;50.882;6.962;2022-09-09T09:42:56;100327.72;;;21.05;69.07
34500;BME280;20745;50.882;6.962;2022-09-09T09:45:44;100328.50;;;21.00;69.03
34500;BME280;20745;50.882;6.962;2022-09-09T09:48:58;100324.91;;;21.00;68.71
34500;BME280;20745;50.882;6.962;2022-09-09T09:51:46;100322.00;;;21.11;68.56
34500;BME280;20745;50.882;6.962;2022-09-09T09:54:38;100321.06;;;21.27;69.24
34500;BME280;20745;50.882;6.962;2022-09-09T09:57:28;100327.31;;;21.49;66.68
34500;BME280;20745;50.882;6.962;2022-09-09T10:00:19;100321.84;;;21.54;66.08
34500;BME280;20745;50.882;6.962;2022-09-09T10:03:33;100325.72;;;21.58;65.93
34500;BME280;20745;50.882;6.962;2022-09-09T10:09:30;100324.28;;;21.78;65.62
34500;BME280;20745;50.882;6.962;2022-09-09T10:12:46;100325.66;;;21.80;66.54
34500;BME280;20745;50.882;6.962;2022-09-09T10:15:52;100318.19;;;21.76;65.86
34500;BME280;20745;50.882;6.962;2022-09-09T10:27:47;100333.78;;;21.65;66.47
34500;BME280;20745;50.882;6.962;2022-09-09T10:30:56;100320.84;;;21.65;64.78
34500;BME280;20745;50.882;6.962;2022-09-09T10:37:03;100322.31;;;21.73;65.23
34500;BME280;20745;50.882;6.962;2022-09-09T10:40:11;100314.19;;;21.93;66.23
34500;BME280;20745;50.882;6.962;2022-09-09T10:52:46;100310.50;;;22.19;63.72
34500;BME280;20745;50.882;6.962;2022-09-09T10:55:40;100317.91;;;22.19;63.80
34500;BME280;20745;50.882;6.962;2022-09-09T10:58:51;100329.50;;;22.16;64.54
34500;BME280;20745;50.882;6.962;2022-09-09T11:01:47;100315.13;;;22.09;63.83
34500;BME280;20745;50.882;6.962;2022-09-09T11:04:47;100322.84;;;22.12;63.36
34500;BME280;20745;50.882;6.962;2022-09-09T11:07:40;100304.47;;;22.22;64.27
34500;BME280;20745;50.882;6.962;2022-09-09T11:10:44;100299.28;;;22.26;63.93
34500;BME280;20745;50.882;6.962;2022-09-09T11:14:14;100304.22;;;22.24;63.31
34500;BME280;20745;50.882;6.962;2022-09-09T11:17:10;100303.09;;;22.25;63.21
34500;BME280;20745;50.882;6.962;2022-09-09T11:19:59;100313.53;;;22.18;63.13
34500;BME280;20745;50.882;6.962;2022-09-09T11:22:59;100312.97;;;22.16;64.05
34500;BME280;20745;50.882;6.962;2022-09-09T11:25:55;100300.31;;;22.15;63.55
34500;BME280;20745;50.882;6.962;2022-09-09T11:41:04;100294.78;;;22.61;61.95
34500;BME280;20745;50.882;6.962;2022-09-09T11:43:53;100285.16;;;22.79;61.12
34500;BME280;20745;50.882;6.962;2022-09-09T11:46:41;100287.94;;;22.89;59.77
34500;BME280;20745;50.882;6.962;2022-09-09T11:49:40;100288.25;;;22.97;60.78
34500;BME280;20745;50.882;6.962;2022-09-09T11:52:40;100294.56;;;22.98;60.72
34500;BME280;20745;50.882;6.962;2022-09-09T11:55:31;100281.06;;;22.86;60.71
34500;BME280;20745;50.882;6.962;2022-09-09T11:58:23;100285.47;;;22.82;61.38
34500;BME280;20745;50.882;6.962;2022-09-09T12:01:38;100287.91;;;22.74;61.38
34500;BME280;20745;50.882;6.962;2022-09-09T12:07:33;100296.06;;;22.49;61.62
34500;BME280;20745;50.882;6.962;2022-09-09T12:10:38;100285.53;;;22.26;60.18
34500;BME280;20745;50.882;6.962;2022-09-09T12:13:27;100288.84;;;22.33;60.77
34500;BME280;20745;50.882;6.962;2022-09-09T12:16:33;100290.50;;;22.39;61.90
34500;BME280;20745;50.882;6.962;2022-09-09T12:19:21;100296.38;;;22.52;61.68
34500;BME280;20745;50.882;6.962;2022-09-09T12:22:31;100292.81;;;22.57;61.89
34500;BME280;20745;50.882;6.962;2022-09-09T12:32:11;100287.66;;;22.80;57.67
34500;BME280;20745;50.882;6.962;2022-09-09T12:35:09;100282.44;;;22.89;59.14
34500;BME280;20745;50.882;6.962;2022-09-09T12:38:00;100286.88;;;23.00;60.48
34500;BME280;20745;50.882;6.962;2022-09-09T12:40:57;100281.63;;;22.88;58.74
34500;BME280;20745;50.882;6.962;2022-09-09T12:43:45;100284.06;;;22.75;59.21
34500;BME280;20745;50.882;6.962;2022-09-09T12:46:39;100279.06;;;22.62;59.91
34500;BME280;20745;50.882;6.962;2022-09-09T12:49:34;100272.66;;;22.46;60.12
34500;BME280;20745;50.882;6.962;2022-09-09T12:52:32;100276.78;;;22.44;60.73
34500;BME280;20745;50.882;6.962;2022-09-09T12:55:24;100272.47;;;22.68;62.36
34500;BME280;20745;50.882;6.962;2022-09-09T12:58:17;100271.75;;;23.07;61.66
34500;BME280;20745;50.882;6.962;2022-09-09T13:01:05;100253.59;;;23.41;61.33
34500;BME280;20745;50.882;6.962;2022-09-09T13:03:53;100262.94;;;23.60;61.38
34500;BME280;20745;50.882;6.962;2022-09-09T13:06:41;100258.81;;;23.48;60.62
34500;BME280;20745;50.882;6.962;2022-09-09T13:09:28;100263.25;;;23.49;61.42
34500;BME280;20745;50.882;6.962;2022-09-09T13:12:21;100249.13;;;23.60;59.48
34500;BME280;20745;50.882;6.962;2022-09-09T13:15:16;100265.94;;;23.74;59.68
34500;BME280;20745;50.882;6.962;2022-09-09T13:18:12;100260.69;;;23.88;60.17
34500;BME280;20745;50.882;6.962;2022-09-09T13:21:00;100263.19;;;23.84;59.39
34500;BME280;20745;50.882;6.962;2022-09-09T13:23:51;100257.38;;;23.96;60.52
34500;BME280;20745;50.882;6.962;2022-09-09T13:26:39;100260.91;;;24.16;59.51
34500;BME280;20745;50.882;6.962;2022-09-09T13:29:27;100256.41;;;24.35;60.43
34500;BME280;20745;50.882;6.962;2022-09-09T13:32:17;100255.31;;;24.31;60.90
34500;BME280;20745;50.882;6.962;2022-09-09T13:35:23;100242.19;;;24.03;57.84
34500;BME280;20745;50.882;6.962;2022-09-09T13:38:14;100240.56;;;23.87;61.02
34500;BME280;20745;50.882;6.962;2022-09-09T13:41:04;100252.69;;;23.81;60.00
34500;BME280;20745;50.882;6.962;2022-09-09T13:43:52;100245.53;;;23.80;59.19
34500;BME280;20745;50.882;6.962;2022-09-09T13:46:42;100249.16;;;23.55;59.99
34500;BME280;20745;50.882;6.962;2022-09-09T13:49:30;100259.34;;;23.60;59.86
34500;BME280;20745;50.882;6.962;2022-09-09T13:52:18;100250.25;;;23.64;59.11
34500;BME280;20745;50.882;6.962;2022-09-09T13:55:08;100254.97;;;23.59;59.18
34500;BME280;20745;50.882;6.962;2022-09-09T13:58:02;100245.31;;;23.61;59.65
34500;BME280;20745;50.882;6.962;2022-09-09T14:00:49;100208.66;;;23.36;62.15
34500;BME280;20745;50.882;6.962;2022-09-09T14:03:37;100241.47;;;23.47;60.97
34500;BME280;20745;50.882;6.962;2022-09-09T14:06:24;100242.56;;;23.41;61.99
34500;BME280;20745;50.882;6.962;2022-09-09T14:09:13;100245.59;;;23.50;62.24
34500;BME280;20745;50.882;6.962;2022-09-09T14:12:03;100248.88;;;23.52;62.77
34500;BME280;20745;50.882;6.962;2022-09-09T14:14:50;100254.97;;;23.44;62.63
34500;BME280;20745;50.882;6.962;2022-09-09T14:17:37;100244.50;;;23.26;63.57
34500;BME280;20745;50.882;6.962;2022-09-09T14:20:25;100243.97;;;23.29;63.38
34500;BME280;20745;50.882;6.962;2022-09-09T14:23:13;100229.59;;;23.37;64.35
34500;BME280;20745;50.882;6.962;2022-09-09T14:26:01;100226.00;;;23.56;61.98
34500;BME280;20745;50.882;6.962;2022-09-09T14:28:48;100238.09;;;23.60;62.75
34500;BME280;20745;50.882;6.962;2022-09-09T14:31:41;100236.78;;;23.28;61.23
34500;BME280;20745;50.882;6.962;2022-09-09T14:34:29;100249.97;;;23.06;62.98
34500;BME280;20745;50.882;6.962;2022-09-09T14:37:17;100248.28;;;22.85;64.48
34500;BME280;20745;50.882;6.962;2022-09-09T14:40:05;100241.66;;;22.66;65.93
34500;BME280;20745;50.882;6.962;2022-09-09T14:42:53;100253.66;;;22.45;65.97
34500;BME280;20745;50.882;6.962;2022-09-09T14:45:40;100251.97;;;22.34;68.85
34500;BME280;20745;50.882;6.962;2022-09-09T14:48:28;100271.75;;;22.26;73.33
34500;BME280;20745;50.882;6.962;2022-09-09T14:51:18;100271.78;;;21.79;90.88
34500;BME280;20745;50.882;6.962;2022-09-09T14:54:09;100271.72;;;21.37;99.47
34500;BME280;20745;50.882;6.962;2022-09-09T14:56:58;100270.09;;;21.41;99.09
34500;BME280;20745;50.882;6.962;2022-09-09T14:59:45;100269.63;;;21.54;97.16
34500;BME280;20745;50.882;6.962;2022-09-09T15:02:33;100270.28;;;21.67;95.75
34500;BME280;20745;50.882;6.962;2022-09-09T15:05:21;100273.16;;;21.82;96.57
34500;BME280;20745;50.882;6.962;2022-09-09T15:08:08;100269.66;;;21.96;93.02
34500;BME280;20745;50.882;6.962;2022-09-09T15:10:59;100263.94;;;22.03;89.25
34500;BME280;20745;50.882;6.962;2022-09-09T15:13:51;100258.75;;;22.11;88.34
34500;BME280;20745;50.882;6.962;2022-09-09T15:16:40;100265.09;;;22.17;88.55
34500;BME280;20745;50.882;6.962;2022-09-09T15:19:27;100268.06;;;22.05;85.50
34500;BME280;20745;50.882;6.962;2022-09-09T15:22:15;100275.22;;;22.06;86.43
34500;BME280;20745;50.882;6.962;2022-09-09T15:25:02;100288.13;;;22.01;87.21
34500;BME280;20745;50.882;6.962;2022-09-09T15:27:49;100282.50;;;21.81;96.52
34500;BME280;20745;50.882;6.962;2022-09-09T15:30:36;100280.69;;;21.59;96.68
34500;BME280;20745;50.882;6.962;2022-09-09T15:33:24;100276.16;;;21.43;97.13
34500;BME280;20745;50.882;6.962;2022-09-09T15:39:12;100280.81;;;21.11;96.27
34500;BME280;20745;50.882;6.962;2022-09-09T15:42:00;100280.03;;;20.89;98.13
34500;BME280;20745;50.882;6.962;2022-09-09T15:44:47;100279.56;;;20.71;96.42
34500;BME280;20745;50.882;6.962;2022-09-09T15:47:34;100284.72;;;20.41;94.81
34500;BME280;20745;50.882;6.962;2022-09-09T15:50:22;100290.84;;;20.26;93.76
34500;BME280;20745;50.882;6.962;2022-09-09T15:53:09;100295.78;;;19.91;95.66
34500;BME280;20745;50.882;6.962;2022-09-09T15:55:58;100306.19;;;19.73;100.00
34500;BME280;20745;50.882;6.962;2022-09-09T15:58:46;100310.19;;;19.65;100.00
34500;BME280;20745;50.882;6.962;2022-09-09T16:01:33;100307.94;;;19.62;100.00
34500;BME280;20745;50.882;6.962;2022-09-09T16:04:23;100310.03;;;19.55;100.00
34500;BME280;20745;50.882;6.962;2022-09-09T16:07:10;100299.41;;;19.59;100.00
34500;BME280;20745;50.882;6.962;2022-09-09T16:09:58;100304.88;;;19.59;100.00
34500;BME280;20745;50.882;6.962;2022-09-09T16:12:45;100291.78;;;19.44;100.00
34500;BME280;20745;50.882;6.962;2022-09-09T16:15:33;100311.63;;;19.51;100.00
34500;BME280;20745;50.882;6.962;2022-09-09T16:18:20;100302.91;;;19.54;100.00
34500;BME280;20745;50.882;6.962;2022-09-09T16:21:08;100309.97;;;19.50;100.00